sensor_id;sensor_type;location;lat;lon;timestamp;pressure;altitude;pressure_sealevel;temperature;humidity
12172;BME280;6149;52.418;13.668;2023-10-19T00:02:05;100118.50;;;6.32;100.00
12172;BME280;6149;52.418;13.668;2023-10-19T00:04:34;100111.09;;;6.22;100.00
12172;BME280;6149;52.418;13.668;2023-10-19T00:07:02;100109.84;;;6.10;100.00
12172;BME280;6149;52.418;13.668;2023-10-19T00:09:30;100105.06;;;6.20;100.00
12172;BME280;6149;52.418;13.668;2023-10-19T00:12:04;100112.47;;;6.10;100.00
12172;BME280;6149;52.418;13.668;2023-10-19T00:14:31;100105.41;;;6.12;100.00
12172;BME280;6149;52.418;13.668;2023-10-19T00:16:58;100099.41;;;6.09;100.00
12172;BME280;6149;52.418;13.668;2023-10-19T00:19:26;100096.59;;;6.13;100.00
12172;BME280;6149;52.418;13.668;2023-10-19T00:21:56;100098.44;;;6.11;100.00
12172;BME280;6149;52.418;13.668;2023-10-19T00:24:34;100100.22;;;6.11;100.00
12172;BME280;6149;52.418;13.668;2023-10-19T00:27:01;100090.63;;;6.10;100.00
12172;BME280;6149;52.418;13.668;2023-10-19T00:29:32;100103.03;;;6.06;100.00
12172;BME280;6149;52.418;13.668;2023-10-19T00:32:05;100103.56;;;6.14;100.00
12172;BME280;6149;52.418;13.668;2023-10-19T00:34:38;100088.00;;;6.10;100.00
12172;BME280;6149;52.418;13.668;2023-10-19T00:37:06;100078.50;;;6.07;100.00
12172;BME280;6149;52.418;13.668;2023-10-19T00:39:36;100062.41;;;6.15;100.00
12172;BME280;6149;52.418;13.668;2023-10-19T00:42:10;100055.59;;;6.11;100.00
12172;BME280;6149;52.418;13.668;2023-10-19T00:44:40;100046.47;;;6.19;100.00
12172;BME280;6149;52.418;13.668;2023-10-19T00:47:17;100049.75;;;6.04;100.00
12172;BME280;6149;52.418;13.668;2023-10-19T00:49:50;100044.75;;;5.98;100.00
12172;BME280;6149;52.418;13.668;2023-10-19T00:52:25;100042.66;;;6.06;100.00
12172;BME280;6149;52.418;13.668;2023-10-19T00:54:57;100038.66;;;6.18;100.00
12172;BME280;6149;52.418;13.668;2023-10-19T00:57:25;100031.06;;;6.12;100.00
12172;BME280;6149;52.418;13.668;2023-10-19T01:00:00;100027.44;;;6.14;100.00
12172;BME280;6149;52.418;13.668;2023-10-19T01:02:37;100018.25;;;6.04;100.00
12172;BME280;6149;52.418;13.668;2023-10-19T01:05:10;100019.03;;;6.06;100.00
12172;BME280;6149;52.418;13.668;2023-10-19T01:07:42;100006.00;;;6.04;100.00
12172;BME280;6149;52.418;13.668;2023-10-19T01:10:10;100015.22;;;6.13;100.00
12172;BME280;6149;52.418;13.668;2023-10-19T01:12:47;100007.50;;;6.10;100.00
12172;BME280;6149;52.418;13.668;2023-10-19T01:15:19;100002.19;;;6.12;100.00
12172;BME280;6149;52.418;13.668;2023-10-19T01:17:58;100002.13;;;6.13;100.00
12172;BME280;6149;52.418;13.668;2023-10-19T01:20:28;99996.94;;;6.12;100.00
12172;BME280;6149;52.418;13.668;2023-10-19T01:23:14;99995.28;;;6.09;100.00
12172;BME280;6149;52.418;13.668;2023-10-19T01:25:52;99995.34;;;6.08;100.00
12172;BME280;6149;52.418;13.668;2023-10-19T01:28:27;99991.22;;;6.02;100.00
12172;BME280;6149;52.418;13.668;2023-10-19T01:31:07;99989.91;;;6.12;100.00
12172;BME280;6149;52.418;13.668;2023-10-19T01:33:41;99988.66;;;6.00;100.00
12172;BME280;6149;52.418;13.668;2023-10-19T01:36:09;99979.13;;;6.18;100.00
12172;BME280;6149;52.418;13.668;2023-10-19T01:38:56;99971.94;;;6.03;100.00
12172;BME280;6149;52.418;13.668;2023-10-19T01:41:27;99968.34;;;6.06;100.00
12172;BME280;6149;52.418;13.668;2023-10-19T01:43:56;99966.41;;;6.09;100.00
12172;BME280;6149;52.418;13.668;2023-10-19T01:46:30;99960.78;;;5.98;100.00
12172;BME280;6149;52.418;13.668;2023-10-19T01:48:59;99957.38;;;5.96;100.00
12172;BME280;6149;52.418;13.668;2023-10-19T01:51:29;99955.78;;;5.93;100.00
12172;BME280;6149;52.418;13.668;2023-10-19T01:53:59;99951.16;;;5.98;100.00
12172;BME280;6149;52.418;13.668;2023-10-19T01:56:27;99948.66;;;5.95;100.00
12172;BME280;6149;52.418;13.668;2023-10-19T01:58:53;99953.00;;;5.96;100.00
12172;BME280;6149;52.418;13.668;2023-10-19T02:01:22;99941.38;;;6.02;100.00
12172;BME280;6149;52.418;13.668;2023-10-19T02:03:56;99921.75;;;6.11;100.00
12172;BME280;6149;52.418;13.668;2023-10-19T02:06:26;99924.44;;;6.09;100.00
12172;BME280;6149;52.418;13.668;2023-10-19T02:08:58;99917.63;;;6.05;100.00
12172;BME280;6149;52.418;13.668;2023-10-19T02:11:36;99927.19;;;6.06;100.00
12172;BME280;6149;52.418;13.668;2023-10-19T02:14:03;99917.19;;;5.95;100.00
12172;BME280;6149;52.418;13.668;2023-10-19T02:16:39;99916.25;;;5.96;100.00
12172;BME280;6149;52.418;13.668;2023-10-19T02:19:05;99905.41;;;6.04;100.00
12172;BME280;6149;52.418;13.668;2023-10-19T02:21:31;99910.38;;;6.10;100.00
12172;BME280;6149;52.418;13.668;2023-10-19T02:23:59;99912.50;;;6.02;100.00
12172;BME280;6149;52.418;13.668;2023-10-19T02:26:26;99907.59;;;5.94;100.00
12172;BME280;6149;52.418;13.668;2023-10-19T02:28:54;99898.13;;;5.92;100.00
12172;BME280;6149;52.418;13.668;2023-10-19T02:31:23;99897.69;;;6.01;100.00
12172;BME280;6149;52.418;13.668;2023-10-19T02:33:51;99898.91;;;5.94;100.00
12172;BME280;6149;52.418;13.668;2023-10-19T02:36:26;99888.56;;;5.91;100.00
12172;BME280;6149;52.418;13.668;2023-10-19T02:38:55;99888.09;;;6.00;100.00
12172;BME280;6149;52.418;13.668;2023-10-19T02:41:27;99873.59;;;5.93;100.00
12172;BME280;6149;52.418;13.668;2023-10-19T02:43:53;99870.19;;;5.91;100.00
12172;BME280;6149;52.418;13.668;2023-10-19T02:46:28;99874.06;;;6.01;100.00
12172;BME280;6149;52.418;13.668;2023-10-19T02:48:55;99865.78;;;6.10;100.00
12172;BME280;6149;52.418;13.668;2023-10-19T02:51:24;99873.41;;;5.96;100.00
12172;BME280;6149;52.418;13.668;2023-10-19T02:53:52;99867.31;;;5.95;100.00
12172;BME280;6149;52.418;13.668;2023-10-19T02:56:20;99857.41;;;6.02;100.00
12172;BME280;6149;52.418;13.668;2023-10-19T02:59:04;99854.13;;;5.97;100.00
12172;BME280;6149;52.418;13.668;2023-10-19T03:01:31;99852.34;;;5.97;100.00
12172;BME280;6149;52.418;13.668;2023-10-19T03:04:00;99853.13;;;5.99;100.00
12172;BME280;6149;52.418;13.668;2023-10-19T03:06:31;99850.22;;;6.06;100.00
12172;BME280;6149;52.418;13.668;2023-10-19T03:08:58;99838.09;;;6.03;100.00
12172;BME280;6149;52.418;13.668;2023-10-19T03:11:30;99834.78;;;5.99;100.00
12172;BME280;6149;52.418;13.668;2023-10-19T03:13:59;99837.41;;;6.18;100.00
12172;BME280;6149;52.418;13.668;2023-10-19T03:16:30;99823.78;;;6.10;100.00
12172;BME280;6149;52.418;13.668;2023-10-19T03:18:56;99820.22;;;6.11;100.00
12172;BME280;6149;52.418;13.668;2023-10-19T03:21:24;99820.53;;;6.05;100.00
12172;BME280;6149;52.418;13.668;2023-10-19T03:23:53;99825.84;;;6.03;100.00
12172;BME280;6149;52.418;13.668;2023-10-19T03:26:23;99823.00;;;6.08;100.00
12172;BME280;6149;52.418;13.668;2023-10-19T03:28:54;99815.41;;;6.02;100.00
12172;BME280;6149;52.418;13.668;2023-10-19T03:31:24;99809.72;;;6.11;100.00
12172;BME280;6149;52.418;13.668;2023-10-19T03:33:51;99812.66;;;6.05;100.00
12172;BME280;6149;52.418;13.668;2023-10-19T03:36:43;99813.28;;;6.10;100.00
12172;BME280;6149;52.418;13.668;2023-10-19T03:39:11;99809.53;;;6.16;100.00
12172;BME280;6149;52.418;13.668;2023-10-19T03:41:41;99810.38;;;6.16;100.00
12172;BME280;6149;52.418;13.668;2023-10-19T03:44:09;99807.03;;;6.13;100.00
12172;BME280;6149;52.418;13.668;2023-10-19T03:46:43;99808.88;;;6.11;100.00
12172;BME280;6149;52.418;13.668;2023-10-19T03:49:23;99796.69;;;6.10;100.00
12172;BME280;6149;52.418;13.668;2023-10-19T03:51:57;99794.00;;;6.11;100.00
12172;BME280;6149;52.418;13.668;2023-10-19T03:54:28;99779.22;;;6.27;100.00
12172;BME280;6149;52.418;13.668;2023-10-19T03:56:58;99780.56;;;6.17;100.00
12172;BME280;6149;52.418;13.668;2023-10-19T03:59:32;99772.22;;;6.09;100.00
12172;BME280;6149;52.418;13.668;2023-10-19T04:02:01;99768.09;;;6.22;100.00
12172;BME280;6149;52.418;13.668;2023-10-19T04:04:35;99763.56;;;6.07;100.00
12172;BME280;6149;52.418;13.668;2023-10-19T04:07:05;99760.88;;;6.09;100.00
12172;BME280;6149;52.418;13.668;2023-10-19T04:09:40;99763.41;;;6.10;100.00
12172;BME280;6149;52.418;13.668;2023-10-19T04:12:23;99764.28;;;6.11;100.00
12172;BME280;6149;52.418;13.668;2023-10-19T04:14:51;99760.78;;;6.10;100.00
12172;BME280;6149;52.418;13.668;2023-10-19T04:17:21;99769.81;;;6.04;100.00
12172;BME280;6149;52.418;13.668;2023-10-19T04:19:52;99770.50;;;6.08;100.00
12172;BME280;6149;52.418;13.668;2023-10-19T04:22:35;99754.31;;;6.17;100.00
12172;BME280;6149;52.418;13.668;2023-10-19T04:25:01;99756.47;;;6.09;100.00
12172;BME280;6149;52.418;13.668;2023-10-19T04:27:31;99753.00;;;6.09;100.00
12172;BME280;6149;52.418;13.668;2023-10-19T04:30:00;99752.00;;;6.11;100.00
12172;BME280;6149;52.418;13.668;2023-10-19T04:32:29;99745.16;;;6.26;100.00
12172;BME280;6149;52.418;13.668;2023-10-19T04:34:57;99750.19;;;6.30;100.00
12172;BME280;6149;52.418;13.668;2023-10-19T04:37:30;99749.78;;;6.21;100.00
12172;BME280;6149;52.418;13.668;2023-10-19T04:39:56;99740.50;;;6.14;100.00
12172;BME280;6149;52.418;13.668;2023-10-19T04:42:26;99739.78;;;6.10;100.00
12172;BME280;6149;52.418;13.668;2023-10-19T04:44:54;99733.06;;;6.04;100.00
12172;BME280;6149;52.418;13.668;2023-10-19T04:47:25;99726.53;;;6.13;100.00
12172;BME280;6149;52.418;13.668;2023-10-19T04:49:55;99732.19;;;6.23;100.00
12172;BME280;6149;52.418;13.668;2023-10-19T04:52:23;99721.69;;;6.23;100.00
12172;BME280;6149;52.418;13.668;2023-10-19T04:54:51;99720.34;;;6.14;100.00
12172;BME280;6149;52.418;13.668;2023-10-19T04:57:20;99712.41;;;6.16;100.00
12172;BME280;6149;52.418;13.668;2023-10-19T04:59:48;99715.34;;;6.10;100.00
12172;BME280;6149;52.418;13.668;2023-10-19T05:02:15;99712.94;;;6.05;100.00
12172;BME280;6149;52.418;13.668;2023-10-19T05:04:51;99713.78;;;6.06;100.00
12172;BME280;6149;52.418;13.668;2023-10-19T05:07:25;99713.78;;;6.06;100.00
12172;BME280;6149;52.418;13.668;2023-10-19T05:09:53;99716.63;;;6.01;100.00
12172;BME280;6149;52.418;13.668;2023-10-19T05:12:23;99712.31;;;6.00;100.00
12172;BME280;6149;52.418;13.668;2023-10-19T05:14:51;99715.09;;;6.14;100.00
12172;BME280;6149;52.418;13.668;2023-10-19T05:17:17;99714.19;;;6.15;100.00
12172;BME280;6149;52.418;13.668;2023-10-19T05:19:46;99714.47;;;6.09;100.00
12172;BME280;6149;52.418;13.668;2023-10-19T05:22:14;99704.47;;;6.17;100.00
12172;BME280;6149;52.418;13.668;2023-10-19T05:24:43;99701.06;;;6.15;100.00
12172;BME280;6149;52.418;13.668;2023-10-19T05:27:10;99690.94;;;6.08;100.00
12172;BME280;6149;52.418;13.668;2023-10-19T05:29:37;99686.75;;;6.03;100.00
12172;BME280;6149;52.418;13.668;2023-10-19T05:32:05;99673.72;;;6.02;100.00
12172;BME280;6149;52.418;13.668;2023-10-19T05:34:32;99667.53;;;6.03;100.00
12172;BME280;6149;52.418;13.668;2023-10-19T05:37:01;99673.25;;;6.11;100.00
12172;BME280;6149;52.418;13.668;2023-10-19T05:39:30;99670.72;;;6.10;100.00
12172;BME280;6149;52.418;13.668;2023-10-19T05:42:00;99661.22;;;6.07;100.00
12172;BME280;6149;52.418;13.668;2023-10-19T05:44:26;99671.41;;;6.13;100.00
12172;BME280;6149;52.418;13.668;2023-10-19T05:46:54;99677.50;;;6.14;100.00
12172;BME280;6149;52.418;13.668;2023-10-19T05:49:23;99686.59;;;6.07;100.00
12172;BME280;6149;52.418;13.668;2023-10-19T05:51:53;99688.09;;;6.12;100.00
12172;BME280;6149;52.418;13.668;2023-10-19T05:54:23;99683.06;;;6.08;100.00
12172;BME280;6149;52.418;13.668;2023-10-19T05:56:51;99681.53;;;6.21;100.00
12172;BME280;6149;52.418;13.668;2023-10-19T05:59:31;99697.81;;;6.10;100.00
12172;BME280;6149;52.418;13.668;2023-10-19T06:01:58;99693.78;;;6.03;100.00
12172;BME280;6149;52.418;13.668;2023-10-19T06:04:26;99695.97;;;6.12;100.00
12172;BME280;6149;52.418;13.668;2023-10-19T06:06:55;99701.66;;;6.03;100.00
12172;BME280;6149;52.418;13.668;2023-10-19T06:09:25;99706.19;;;5.99;100.00
12172;BME280;6149;52.418;13.668;2023-10-19T06:11:55;99700.88;;;6.01;100.00
12172;BME280;6149;52.418;13.668;2023-10-19T06:14:28;99712.94;;;6.05;100.00
12172;BME280;6149;52.418;13.668;2023-10-19T06:16:55;99714.63;;;6.06;100.00
12172;BME280;6149;52.418;13.668;2023-10-19T06:19:26;99712.31;;;6.00;100.00
12172;BME280;6149;52.418;13.668;2023-10-19T06:21:54;99701.81;;;6.00;100.00
12172;BME280;6149;52.418;13.668;2023-10-19T06:24:22;99692.22;;;5.99;100.00
12172;BME280;6149;52.418;13.668;2023-10-19T06:26:48;99683.94;;;6.25;100.00
12172;BME280;6149;52.418;13.668;2023-10-19T06:29:19;99667.38;;;6.06;100.00
12172;BME280;6149;52.418;13.668;2023-10-19T06:31:54;99659.22;;;6.12;100.00
12172;BME280;6149;52.418;13.668;2023-10-19T06:34:22;99661.38;;;6.04;100.00
12172;BME280;6149;52.418;13.668;2023-10-19T06:36:51;99671.88;;;6.04;100.00
12172;BME280;6149;52.418;13.668;2023-10-19T06:39:18;99667.53;;;6.03;100.00
12172;BME280;6149;52.418;13.668;2023-10-19T06:41:46;99657.13;;;6.01;100.00
12172;BME280;6149;52.418;13.668;2023-10-19T06:44:14;99659.75;;;6.01;100.00
12172;BME280;6149;52.418;13.668;2023-10-19T06:46:42;99648.16;;;6.06;100.00
12172;BME280;6149;52.418;13.668;2023-10-19T06:49:10;99642.31;;;6.00;100.00
12172;BME280;6149;52.418;13.668;2023-10-19T06:51:42;99636.19;;;6.00;100.00
12172;BME280;6149;52.418;13.668;2023-10-19T06:54:09;99642.22;;;6.02;100.00
12172;BME280;6149;52.418;13.668;2023-10-19T06:56:38;99634.19;;;6.05;100.00
12172;BME280;6149;52.418;13.668;2023-10-19T06:59:04;99628.72;;;6.10;100.00
12172;BME280;6149;52.418;13.668;2023-10-19T07:01:32;99623.00;;;6.01;100.00
12172;BME280;6149;52.418;13.668;2023-10-19T07:04:01;99623.78;;;6.03;100.00
12172;BME280;6149;52.418;13.668;2023-10-19T07:06:29;99626.09;;;6.10;100.00
12172;BME280;6149;52.418;13.668;2023-10-19T07:08:56;99612.28;;;6.06;100.00
12172;BME280;6149;52.418;13.668;2023-10-19T07:11:24;99603.09;;;6.15;100.00
12172;BME280;6149;52.418;13.668;2023-10-19T07:13:52;99614.22;;;6.20;100.00
12172;BME280;6149;52.418;13.668;2023-10-19T07:16:21;99610.13;;;6.14;100.00
12172;BME280;6149;52.418;13.668;2023-10-19T07:18:50;99617.22;;;6.12;100.00
12172;BME280;6149;52.418;13.668;2023-10-19T07:21:18;99610.28;;;6.11;100.00
12172;BME280;6149;52.418;13.668;2023-10-19T07:24:01;99615.31;;;6.16;100.00
12172;BME280;6149;52.418;13.668;2023-10-19T07:26:30;99603.19;;;6.13;100.00
12172;BME280;6149;52.418;13.668;2023-10-19T07:28:58;99595.69;;;6.23;100.00
12172;BME280;6149;52.418;13.668;2023-10-19T07:31:26;99586.44;;;6.16;100.00
12172;BME280;6149;52.418;13.668;2023-10-19T07:33:54;99589.81;;;6.18;100.00
12172;BME280;6149;52.418;13.668;2023-10-19T07:36:25;99588.28;;;6.14;100.00
12172;BME280;6149;52.418;13.668;2023-10-19T07:38:54;99597.22;;;6.10;100.00
12172;BME280;6149;52.418;13.668;2023-10-19T07:41:24;99596.22;;;6.12;100.00
12172;BME280;6149;52.418;13.668;2023-10-19T07:43:51;99597.78;;;6.16;100.00
12172;BME280;6149;52.418;13.668;2023-10-19T07:46:19;99594.84;;;6.22;100.00
12172;BME280;6149;52.418;13.668;2023-10-19T07:48:47;99601.63;;;6.26;100.00
12172;BME280;6149;52.418;13.668;2023-10-19T07:51:13;99605.09;;;6.27;100.00
12172;BME280;6149;52.418;13.668;2023-10-19T07:53:41;99608.00;;;6.38;100.00
12172;BME280;6149;52.418;13.668;2023-10-19T07:56:13;99611.63;;;6.35;100.00
12172;BME280;6149;52.418;13.668;2023-10-19T07:58:39;99603.59;;;6.38;100.00
12172;BME280;6149;52.418;13.668;2023-10-19T08:01:08;99604.44;;;6.72;100.00
12172;BME280;6149;52.418;13.668;2023-10-19T08:03:34;99599.34;;;6.69;100.00
12172;BME280;6149;52.418;13.668;2023-10-19T08:06:02;99600.72;;;6.76;100.00
12172;BME280;6149;52.418;13.668;2023-10-19T08:08:32;99609.97;;;6.67;100.00
12172;BME280;6149;52.418;13.668;2023-10-19T08:11:00;99607.91;;;6.72;100.00
12172;BME280;6149;52.418;13.668;2023-10-19T08:13:28;99610.81;;;6.68;100.00
12172;BME280;6149;52.418;13.668;2023-10-19T08:15:56;99601.31;;;6.65;100.00
12172;BME280;6149;52.418;13.668;2023-10-19T08:18:24;99609.28;;;6.64;100.00
12172;BME280;6149;52.418;13.668;2023-10-19T08:20:57;99605.56;;;6.68;100.00
12172;BME280;6149;52.418;13.668;2023-10-19T08:23:25;99596.66;;;6.70;100.00
12172;BME280;6149;52.418;13.668;2023-10-19T08:25:54;99597.78;;;6.82;100.00
12172;BME280;6149;52.418;13.668;2023-10-19T08:28:21;99596.94;;;6.82;100.00
12172;BME280;6149;52.418;13.668;2023-10-19T08:30:55;99595.75;;;6.87;100.00
12172;BME280;6149;52.418;13.668;2023-10-19T08:33:27;99603.47;;;6.90;100.00
12172;BME280;6149;52.418;13.668;2023-10-19T08:35:59;99593.41;;;6.98;100.00
12172;BME280;6149;52.418;13.668;2023-10-19T08:38:27;99599.84;;;6.93;100.00
12172;BME280;6149;52.418;13.668;2023-10-19T08:40:56;99584.56;;;6.99;100.00
12172;BME280;6149;52.418;13.668;2023-10-19T08:43:25;99574.66;;;7.20;100.00
12172;BME280;6149;52.418;13.668;2023-10-19T08:45:55;99569.72;;;7.14;100.00
12172;BME280;6149;52.418;13.668;2023-10-19T08:48:23;99562.00;;;7.27;100.00
12172;BME280;6149;52.418;13.668;2023-10-19T08:50:55;99551.75;;;7.22;100.00
12172;BME280;6149;52.418;13.668;2023-10-19T08:53:24;99542.50;;;7.15;100.00
12172;BME280;6149;52.418;13.668;2023-10-19T08:55:54;99545.03;;;7.17;100.00
12172;BME280;6149;52.418;13.668;2023-10-19T08:58:21;99552.16;;;7.15;100.00
12172;BME280;6149;52.418;13.668;2023-10-19T09:00:51;99552.50;;;7.24;100.00
12172;BME280;6149;52.418;13.668;2023-10-19T09:03:23;99549.44;;;7.32;100.00
12172;BME280;6149;52.418;13.668;2023-10-19T09:05:51;99543.19;;;7.34;100.00
12172;BME280;6149;52.418;13.668;2023-10-19T09:08:19;99550.03;;;7.37;100.00
12172;BME280;6149;52.418;13.668;2023-10-19T09:10:49;99546.88;;;7.46;100.00
12172;BME280;6149;52.418;13.668;2023-10-19T09:13:23;99546.88;;;7.46;100.00
12172;BME280;6149;52.418;13.668;2023-10-19T09:15:50;99538.88;;;7.48;100.00
12172;BME280;6149;52.418;13.668;2023-10-19T09:18:23;99544.28;;;7.60;100.00
12172;BME280;6149;52.418;13.668;2023-10-19T09:20:52;99539.28;;;7.56;100.00
12172;BME280;6149;52.418;13.668;2023-10-19T09:23:23;99543.28;;;7.63;100.00
12172;BME280;6149;52.418;13.668;2023-10-19T09:25:56;99534.44;;;7.64;100.00
12172;BME280;6149;52.418;13.668;2023-10-19T09:28:25;99532.75;;;7.63;100.00
12172;BME280;6149;52.418;13.668;2023-10-19T09:30:53;99526.91;;;7.58;100.00
12172;BME280;6149;52.418;13.668;2023-10-19T09:33:22;99524.28;;;7.58;100.00
12172;BME280;6149;52.418;13.668;2023-10-19T09:35:51;99539.78;;;7.62;100.00
12172;BME280;6149;52.418;13.668;2023-10-19T09:38:23;99528.75;;;7.71;100.00
12172;BME280;6149;52.418;13.668;2023-10-19T09:40:53;99528.84;;;7.70;100.00
12172;BME280;6149;52.418;13.668;2023-10-19T09:43:24;99521.44;;;7.77;100.00
12172;BME280;6149;52.418;13.668;2023-10-19T09:46:01;99523.13;;;7.92;100.00
12172;BME280;6149;52.418;13.668;2023-10-19T09:48:39;99522.38;;;7.76;100.00
12172;BME280;6149;52.418;13.668;2023-10-19T09:51:08;99522.44;;;7.74;100.00
12172;BME280;6149;52.418;13.668;2023-10-19T09:53:38;99514.75;;;7.71;100.00
12172;BME280;6149;52.418;13.668;2023-10-19T09:56:08;99510.69;;;7.65;100.00
12172;BME280;6149;52.418;13.668;2023-10-19T09:58:41;99520.34;;;7.65;100.00
12172;BME280;6149;52.418;13.668;2023-10-19T10:01:11;99507.28;;;7.63;100.00
12172;BME280;6149;52.418;13.668;2023-10-19T10:03:47;99515.69;;;7.70;100.00
12172;BME280;6149;52.418;13.668;2023-10-19T10:06:15;99506.75;;;7.72;100.00
12172;BME280;6149;52.418;13.668;2023-10-19T10:08:47;99506.09;;;7.69;100.00
12172;BME280;6149;52.418;13.668;2023-10-19T10:11:20;99508.53;;;7.72;100.00
12172;BME280;6149;52.418;13.668;2023-10-19T10:13:51;99503.94;;;7.76;100.00
12172;BME280;6149;52.418;13.668;2023-10-19T10:16:25;99500.06;;;7.67;100.00
12172;BME280;6149;52.418;13.668;2023-10-19T10:19:00;99508.97;;;7.64;100.00
12172;BME280;6149;52.418;13.668;2023-10-19T10:21:28;99508.13;;;7.64;100.00
12172;BME280;6149;52.418;13.668;2023-10-19T10:23:57;99500.16;;;7.65;100.00
12172;BME280;6149;52.418;13.668;2023-10-19T10:26:28;99501.94;;;7.65;100.00
12172;BME280;6149;52.418;13.668;2023-10-19T10:29:11;99506.94;;;7.69;100.00
12172;BME280;6149;52.418;13.668;2023-10-19T10:31:46;99502.72;;;7.81;100.00
12172;BME280;6149;52.418;13.668;2023-10-19T10:34:43;99499.53;;;7.76;100.00
12172;BME280;6149;52.418;13.668;2023-10-19T10:37:12;99491.06;;;7.85;100.00
12172;BME280;6149;52.418;13.668;2023-10-19T10:39:40;99488.69;;;7.81;100.00
12172;BME280;6149;52.418;13.668;2023-10-19T10:42:10;99488.34;;;7.72;100.00
12172;BME280;6149;52.418;13.668;2023-10-19T10:44:38;99491.25;;;7.68;100.00
12172;BME280;6149;52.418;13.668;2023-10-19T10:47:07;99483.44;;;7.66;100.00
12172;BME280;6149;52.418;13.668;2023-10-19T10:49:47;99495.84;;;7.64;100.00
12172;BME280;6149;52.418;13.668;2023-10-19T10:52:23;99483.25;;;7.69;100.00
12172;BME280;6149;52.418;13.668;2023-10-19T10:54:57;99493.03;;;7.67;100.00
12172;BME280;6149;52.418;13.668;2023-10-19T10:57:31;99480.53;;;7.71;100.00
12172;BME280;6149;52.418;13.668;2023-10-19T11:00:02;99475.81;;;7.62;100.00
12172;BME280;6149;52.418;13.668;2023-10-19T11:02:30;99479.19;;;7.64;100.00
12172;BME280;6149;52.418;13.668;2023-10-19T11:04:58;99480.22;;;7.61;100.00
12172;BME280;6149;52.418;13.668;2023-10-19T11:07:26;99468.38;;;7.54;100.00
12172;BME280;6149;52.418;13.668;2023-10-19T11:09:53;99467.97;;;7.46;100.00
12172;BME280;6149;52.418;13.668;2023-10-19T11:12:20;99470.31;;;7.36;100.00
12172;BME280;6149;52.418;13.668;2023-10-19T11:14:54;99471.06;;;7.38;100.00
12172;BME280;6149;52.418;13.668;2023-10-19T11:17:24;99469.47;;;7.36;100.00
12172;BME280;6149;52.418;13.668;2023-10-19T11:19:55;99467.00;;;7.33;100.00
12172;BME280;6149;52.418;13.668;2023-10-19T11:22:24;99463.63;;;7.31;100.00
12172;BME280;6149;52.418;13.668;2023-10-19T11:24:53;99460.56;;;7.23;100.00
12172;BME280;6149;52.418;13.668;2023-10-19T11:27:26;99451.00;;;7.22;100.00
12172;BME280;6149;52.418;13.668;2023-10-19T11:29:55;99445.63;;;7.39;100.00
12172;BME280;6149;52.418;13.668;2023-10-19T11:32:23;99441.66;;;7.32;100.00
12172;BME280;6149;52.418;13.668;2023-10-19T11:34:54;99444.19;;;7.33;100.00
12172;BME280;6149;52.418;13.668;2023-10-19T11:37:47;99433.41;;;7.38;100.00
12172;BME280;6149;52.418;13.668;2023-10-19T11:40:14;99436.69;;;7.42;100.00
12172;BME280;6149;52.418;13.668;2023-10-19T11:42:42;99429.84;;;7.39;100.00
12172;BME280;6149;52.418;13.668;2023-10-19T11:45:09;99427.13;;;7.41;100.00
12172;BME280;6149;52.418;13.668;2023-10-19T11:47:36;99423.44;;;7.43;100.00
12172;BME280;6149;52.418;13.668;2023-10-19T11:50:04;99423.16;;;7.48;100.00
12172;BME280;6149;52.418;13.668;2023-10-19T11:52:32;99414.44;;;7.47;100.00
12172;BME280;6149;52.418;13.668;2023-10-19T11:54:59;99419.69;;;7.47;100.00
12172;BME280;6149;52.418;13.668;2023-10-19T11:57:26;99423.09;;;7.63;100.00
12172;BME280;6149;52.418;13.668;2023-10-19T11:59:54;99423.28;;;7.60;100.00
12172;BME280;6149;52.418;13.668;2023-10-19T12:02:25;99417.19;;;7.60;100.00
12172;BME280;6149;52.418;13.668;2023-10-19T12:04:56;99415.84;;;7.53;100.00
12172;BME280;6149;52.418;13.668;2023-10-19T12:07:23;99413.88;;;7.56;100.00
12172;BME280;6149;52.418;13.668;2023-10-19T12:09:53;99414.91;;;7.54;100.00
12172;BME280;6149;52.418;13.668;2023-10-19T12:12:19;99412.66;;;7.62;100.00
12172;BME280;6149;52.418;13.668;2023-10-19T12:14:46;99415.09;;;7.51;100.00
12172;BME280;6149;52.418;13.668;2023-10-19T12:17:14;99407.28;;;7.49;100.00
12172;BME280;6149;52.418;13.668;2023-10-19T12:19:43;99414.50;;;7.46;100.00
12172;BME280;6149;52.418;13.668;2023-10-19T12:22:10;99417.91;;;7.48;100.00
12172;BME280;6149;52.418;13.668;2023-10-19T12:24:38;99411.03;;;7.45;100.00
12172;BME280;6149;52.418;13.668;2023-10-19T12:27:08;99403.81;;;7.49;100.00
12172;BME280;6149;52.418;13.668;2023-10-19T12:29:36;99396.78;;;7.63;100.00
12172;BME280;6149;52.418;13.668;2023-10-19T12:32:03;99409.94;;;7.63;100.00
12172;BME280;6149;52.418;13.668;2023-10-19T12:34:30;99408.81;;;7.53;100.00
12172;BME280;6149;52.418;13.668;2023-10-19T12:36:58;99400.81;;;7.55;100.00
12172;BME280;6149;52.418;13.668;2023-10-19T12:39:26;99393.97;;;7.52;100.00
12172;BME280;6149;52.418;13.668;2023-10-19T12:42:10;99395.69;;;7.67;100.00
12172;BME280;6149;52.418;13.668;2023-10-19T12:44:39;99403.44;;;7.55;100.00
12172;BME280;6149;52.418;13.668;2023-10-19T12:47:07;99396.41;;;7.55;100.00
12172;BME280;6149;52.418;13.668;2023-10-19T12:49:38;99393.59;;;7.58;100.00
12172;BME280;6149;52.418;13.668;2023-10-19T12:52:05;99398.69;;;7.61;100.00
12172;BME280;6149;52.418;13.668;2023-10-19T12:54:33;99396.03;;;7.61;100.00
12172;BME280;6149;52.418;13.668;2023-10-19T12:57:00;99402.94;;;7.78;100.00
12172;BME280;6149;52.418;13.668;2023-10-19T12:59:30;99399.97;;;7.83;100.00
12172;BME280;6149;52.418;13.668;2023-10-19T13:01:56;99400.38;;;7.62;100.00
12172;BME280;6149;52.418;13.668;2023-10-19T13:04:25;99404.97;;;7.59;100.00
12172;BME280;6149;52.418;13.668;2023-10-19T13:06:55;99402.59;;;7.54;100.00
12172;BME280;6149;52.418;13.668;2023-10-19T13:09:24;99398.56;;;7.49;100.00
12172;BME280;6149;52.418;13.668;2023-10-19T13:11:57;99399.59;;;7.46;100.00
12172;BME280;6149;52.418;13.668;2023-10-19T13:14:27;99402.59;;;7.54;100.00
12172;BME280;6149;52.418;13.668;2023-10-19T13:17:00;99401.38;;;7.46;100.00